Time;durP1;ratioP1;P1;durP2;ratioP2;P2;SDS_P1;SDS_P2;PMS_P1;PMS_P2;Temp;Humidity;BMP_temperature;BMP_pressure;BME280_temperature;BME280_humidity;BME280_pressure;Samples;Min_cycle;Max_cycle;Signal;HPM_P1;HPM_P2
2020/12/26 00:02:21;;;;;;;5.20;1.57;;;5.40;99.90;;;;;;4894744;29;20200;-82
2020/12/26 00:04:48;;;;;;;6.93;2.10;;;5.30;99.90;;;;;;4895392;29;20266;-82
2020/12/26 00:07:14;;;;;;;5.17;1.30;;;5.40;99.90;;;;;;4895293;29;20272;-82
2020/12/26 00:09:41;;;;;;;6.90;1.90;;;5.40;99.90;;;;;;4894534;29;20204;-83
2020/12/26 00:12:07;;;;;;;8.27;1.50;;;5.40;99.90;;;;;;4894988;29;20953;-81
2020/12/26 00:14:33;;;;;;;8.17;1.60;;;5.50;99.90;;;;;;4895841;29;20892;-83
2020/12/26 00:17:01;;;;;;;7.17;1.80;;;5.60;99.90;;;;;;4894345;29;20277;-83
2020/12/26 00:19:28;;;;;;;5.10;1.40;;;5.70;99.90;;;;;;4894426;29;20215;-83
2020/12/26 00:21:55;;;;;;;8.70;2.33;;;5.70;99.90;;;;;;4894444;29;20231;-81
2020/12/26 00:24:21;;;;;;;9.20;2.00;;;5.70;99.90;;;;;;4894086;29;20202;-83
2020/12/26 00:26:47;;;;;;;13.50;2.30;;;5.80;99.90;;;;;;4893355;29;20212;-82
2020/12/26 00:29:14;;;;;;;7.60;2.43;;;5.90;99.90;;;;;;4912313;29;20252;-83
2020/12/26 00:31:40;;;;;;;7.10;2.93;;;5.90;99.90;;;;;;4932634;29;20217;-82
2020/12/26 00:34:06;;;;;;;8.60;3.13;;;5.90;99.90;;;;;;4931909;29;20607;-81
2020/12/26 00:36:33;;;;;;;6.33;1.67;;;5.90;99.90;;;;;;4931239;29;20260;-82
2020/12/26 00:39:00;;;;;;;10.10;2.50;;;5.90;99.90;;;;;;4931137;29;21012;-82
2020/12/26 00:41:26;;;;;;;8.70;2.00;;;6.00;99.90;;;;;;4930913;29;20648;-82
2020/12/26 00:43:52;;;;;;;8.00;1.80;;;6.00;99.90;;;;;;4930565;29;20243;-82
2020/12/26 00:46:22;;;;;;;9.93;2.40;;;6.00;99.90;;;;;;4930448;29;20783;-82
2020/12/26 00:48:48;;;;;;;4.10;1.50;;;6.00;99.90;;;;;;4931470;29;20205;-82
2020/12/26 00:51:14;;;;;;;7.60;1.90;;;5.90;99.90;;;;;;4930700;29;20201;-83
2020/12/26 00:53:41;;;;;;;6.10;2.17;;;5.90;99.90;;;;;;4931559;29;20229;-81
2020/12/26 00:56:08;;;;;;;7.20;2.00;;;5.90;99.90;;;;;;4931439;29;20238;-82
2020/12/26 00:58:34;;;;;;;6.67;1.80;;;5.90;99.90;;;;;;4930955;29;20614;-81
2020/12/26 01:01:00;;;;;;;8.67;2.00;;;5.90;99.90;;;;;;4930125;29;20293;-83
2020/12/26 01:03:28;;;;;;;9.33;2.07;;;5.90;99.90;;;;;;4931514;29;20206;-81
2020/12/26 01:05:54;;;;;;;4.77;1.90;;;5.90;99.90;;;;;;4930991;29;20548;-81
2020/12/26 01:08:21;;;;;;;8.63;2.10;;;5.90;99.90;;;;;;4929774;29;20603;-81
2020/12/26 01:10:47;;;;;;;5.83;1.60;;;5.90;99.90;;;;;;4931035;29;20501;-83
2020/12/26 01:13:16;;;;;;;5.70;1.43;;;6.00;99.90;;;;;;4930203;29;20229;-81
2020/12/26 01:15:43;;;;;;;9.27;2.50;;;6.00;99.90;;;;;;4930728;29;20925;-80
2020/12/26 01:18:09;;;;;;;3.93;1.47;;;6.00;99.90;;;;;;4930365;29;20197;-81
2020/12/26 01:20:35;;;;;;;5.57;2.17;;;6.10;99.90;;;;;;4931980;29;20210;-82
2020/12/26 01:23:02;;;;;;;9.07;2.07;;;6.00;99.90;;;;;;4949110;28;20194;-82
2020/12/26 01:25:28;;;;;;;8.27;1.80;;;6.00;99.90;;;;;;4948716;29;20213;-82
2020/12/26 01:27:54;;;;;;;4.63;1.50;;;6.00;99.90;;;;;;4948365;29;20657;-81
2020/12/26 01:30:21;;;;;;;7.63;1.47;;;6.00;99.90;;;;;;4949160;29;20245;-83
2020/12/26 01:32:48;;;;;;;8.87;1.40;;;6.00;99.90;;;;;;4950187;29;20256;-82
2020/12/26 01:35:15;;;;;;;4.57;1.90;;;6.00;99.90;;;;;;4949688;29;20494;-83
2020/12/26 01:37:41;;;;;;;7.23;2.50;;;6.00;99.90;;;;;;4949523;29;20215;-81
2020/12/26 01:40:10;;;;;;;10.93;2.83;;;6.00;99.90;;;;;;4949867;29;20225;-82
2020/12/26 01:42:37;;;;;;;11.40;3.47;;;6.10;99.90;;;;;;4948545;29;20212;-82
2020/12/26 01:45:04;;;;;;;8.17;2.70;;;6.10;99.90;;;;;;4949302;28;20205;-80
2020/12/26 01:47:32;;;;;;;4.87;1.80;;;6.00;99.90;;;;;;4948191;28;20200;-82
2020/12/26 01:49:59;;;;;;;7.43;1.60;;;6.10;99.90;;;;;;4948944;29;20216;-82
2020/12/26 01:52:26;;;;;;;5.37;1.63;;;6.10;99.90;;;;;;4948273;29;20213;-81
2020/12/26 01:54:54;;;;;;;5.10;1.70;;;6.10;99.90;;;;;;4948670;29;20209;-81
2020/12/26 01:57:24;;;;;;;4.13;2.00;;;6.10;99.90;;;;;;4947876;28;20235;-80
2020/12/26 01:59:50;;;;;;;5.20;2.03;;;6.10;99.90;;;;;;4948558;28;20993;-82
2020/12/26 02:02:17;;;;;;;6.70;2.27;;;6.10;99.90;;;;;;4947293;28;20212;-81
2020/12/26 02:04:44;;;;;;;10.50;2.77;;;6.10;99.90;;;;;;4948267;28;20228;-81
2020/12/26 02:07:10;;;;;;;6.50;2.20;;;6.10;99.90;;;;;;4948260;29;20268;-82
2020/12/26 02:09:36;;;;;;;7.07;2.17;;;6.10;99.90;;;;;;4947951;29;20205;-81
2020/12/26 02:12:03;;;;;;;6.87;2.70;;;6.10;99.90;;;;;;4947862;29;20224;-82
2020/12/26 02:14:29;;;;;;;5.80;1.73;;;6.00;99.90;;;;;;4948644;29;20237;-81
2020/12/26 02:16:55;;;;;;;6.90;2.13;;;6.00;99.90;;;;;;4946631;29;20233;-80
2020/12/26 02:19:23;;;;;;;8.50;2.33;;;6.10;99.90;;;;;;4947793;28;20204;-82
2020/12/26 02:21:50;;;;;;;6.27;1.70;;;6.10;99.90;;;;;;4937043;29;20307;-80
2020/12/26 02:24:18;;;;;;;7.53;1.60;;;6.10;99.90;;;;;;4930324;29;20206;-81
2020/12/26 02:26:44;;;;;;;5.73;2.37;;;6.20;99.90;;;;;;4932607;29;20274;-79
2020/12/26 02:29:11;;;;;;;9.83;2.30;;;6.10;99.90;;;;;;4932576;29;20240;-81
2020/12/26 02:31:37;;;;;;;5.03;1.83;;;6.20;99.90;;;;;;4932463;29;20202;-82
2020/12/26 02:34:05;;;;;;;4.27;1.80;;;6.20;99.90;;;;;;4931947;29;20202;-81
2020/12/26 02:36:31;;;;;;;6.67;1.93;;;6.10;99.90;;;;;;4932003;29;20222;-82
2020/12/26 02:38:58;;;;;;;4.30;1.77;;;6.00;99.90;;;;;;4932241;29;20210;-80
2020/12/26 02:41:25;;;;;;;5.27;1.70;;;5.90;99.90;;;;;;4931832;29;21136;-82
2020/12/26 02:43:51;;;;;;;4.57;1.60;;;5.90;99.90;;;;;;4932021;29;20206;-80
2020/12/26 02:46:17;;;;;;;6.73;2.60;;;5.80;99.90;;;;;;4931799;29;20309;-81
2020/12/26 02:48:44;;;;;;;8.70;1.80;;;5.80;99.90;;;;;;4931577;29;20214;-80
2020/12/26 02:51:10;;;;;;;8.47;2.47;;;5.80;99.90;;;;;;4930594;29;20213;-82
2020/12/26 02:53:37;;;;;;;5.37;1.93;;;5.80;99.90;;;;;;4931727;29;20229;-80
2020/12/26 02:56:03;;;;;;;6.03;2.43;;;5.80;99.90;;;;;;4930535;29;20225;-81
2020/12/26 02:58:31;;;;;;;7.83;2.73;;;5.80;99.90;;;;;;4930457;29;20735;-81
2020/12/26 03:00:57;;;;;;;3.93;1.57;;;5.90;99.90;;;;;;4930658;29;20202;-81
2020/12/26 03:03:24;;;;;;;6.00;1.80;;;5.90;99.90;;;;;;4930406;29;20194;-79
2020/12/26 03:05:50;;;;;;;6.43;1.60;;;6.00;99.90;;;;;;4930387;29;20202;-80
2020/12/26 03:08:17;;;;;;;7.63;1.70;;;6.00;99.90;;;;;;4930099;29;20201;-80
2020/12/26 03:10:43;;;;;;;3.83;1.87;;;6.00;99.90;;;;;;4929085;29;20221;-79
2020/12/26 03:13:09;;;;;;;6.10;1.60;;;6.10;99.90;;;;;;4926923;29;20210;-81
2020/12/26 03:15:36;;;;;;;6.63;1.77;;;6.20;99.90;;;;;;4927908;29;20202;-81
2020/12/26 03:18:03;;;;;;;7.20;2.03;;;6.20;99.90;;;;;;4926789;29;20670;-81
2020/12/26 03:20:29;;;;;;;3.37;1.10;;;6.20;99.90;;;;;;4929533;29;20347;-80
2020/12/26 03:22:56;;;;;;;6.77;1.97;;;6.30;99.90;;;;;;4948349;29;20209;-80
2020/12/26 03:25:22;;;;;;;4.90;1.30;;;6.30;99.90;;;;;;4948064;28;20790;-80
2020/12/26 03:27:48;;;;;;;5.80;1.60;;;6.30;99.90;;;;;;4947899;28;20228;-80
2020/12/26 03:30:15;;;;;;;2.70;1.30;;;6.30;99.90;;;;;;4947743;29;20260;-80
2020/12/26 03:32:42;;;;;;;3.80;1.20;;;6.30;99.90;;;;;;4947752;29;20193;-81
2020/12/26 03:35:08;;;;;;;9.90;1.50;;;6.30;99.90;;;;;;4944432;28;20209;-81
2020/12/26 03:37:35;;;;;;;5.67;1.30;;;6.40;99.90;;;;;;4946298;28;20229;-81
2020/12/26 03:40:02;;;;;;;6.23;1.20;;;6.40;99.90;;;;;;4948674;28;20264;-81
2020/12/26 03:42:28;;;;;;;7.43;1.93;;;6.40;99.90;;;;;;4950288;28;20205;-81
2020/12/26 03:44:55;;;;;;;5.47;1.37;;;6.50;99.90;;;;;;4949666;29;20260;-81
2020/12/26 03:47:21;;;;;;;8.47;1.80;;;6.60;99.90;;;;;;4949516;29;20205;-81
2020/12/26 03:49:51;;;;;;;4.27;1.67;;;6.60;99.90;;;;;;4949576;29;20201;-81
2020/12/26 03:52:17;;;;;;;5.53;1.53;;;6.60;99.90;;;;;;4949881;28;20516;-82
2020/12/26 03:54:43;;;;;;;4.13;1.60;;;6.60;99.90;;;;;;4949359;29;20565;-82
2020/12/26 03:57:09;;;;;;;9.30;1.77;;;6.60;99.90;;;;;;4947548;29;20229;-79
2020/12/26 03:59:36;;;;;;;8.33;2.50;;;6.60;99.90;;;;;;4948142;29;20209;-79
2020/12/26 04:02:02;;;;;;;7.47;2.33;;;6.50;99.90;;;;;;4946819;29;20209;-82
2020/12/26 04:04:28;;;;;;;6.83;2.70;;;6.50;99.90;;;;;;4946314;29;20232;-82
2020/12/26 04:06:55;;;;;;;9.13;2.50;;;6.50;99.90;;;;;;4946325;29;20213;-81
2020/12/26 04:09:22;;;;;;;6.17;2.23;;;6.50;99.90;;;;;;4947164;29;20206;-81
2020/12/26 04:11:48;;;;;;;9.07;2.60;;;6.50;99.90;;;;;;4947637;29;20201;-80
2020/12/26 04:14:14;;;;;;;7.13;2.57;;;6.50;99.90;;;;;;4947497;29;20350;-81
2020/12/26 04:16:41;;;;;;;5.67;2.40;;;6.50;99.90;;;;;;4946575;28;20221;-83
2020/12/26 04:19:07;;;;;;;6.57;2.00;;;6.50;99.90;;;;;;4946376;29;20201;-81
2020/12/26 04:21:33;;;;;;;5.37;1.57;;;6.50;99.90;;;;;;4937496;29;20531;-82
2020/12/26 04:24:01;;;;;;;4.73;1.50;;;6.60;99.90;;;;;;4926922;29;20206;-82
2020/12/26 04:26:27;;;;;;;5.83;2.10;;;6.60;99.90;;;;;;4928037;29;20565;-80
2020/12/26 04:28:54;;;;;;;5.40;1.60;;;6.70;99.90;;;;;;4927965;29;20607;-82
2020/12/26 04:31:20;;;;;;;4.63;1.60;;;6.70;99.90;;;;;;4927586;29;20198;-82
2020/12/26 04:33:47;;;;;;;4.13;1.47;;;6.70;99.90;;;;;;4928700;29;20209;-83
2020/12/26 04:36:13;;;;;;;5.20;1.67;;;6.70;99.90;;;;;;4927643;29;20252;-81
2020/12/26 04:38:39;;;;;;;4.73;2.17;;;6.70;99.90;;;;;;4928013;29;20217;-81
2020/12/26 04:41:06;;;;;;;7.47;2.40;;;6.70;99.90;;;;;;4928154;29;20585;-81
2020/12/26 04:43:33;;;;;;;7.73;2.87;;;6.70;99.90;;;;;;4928120;29;20244;-82
2020/12/26 04:46:04;;;;;;;5.33;1.60;;;6.70;99.90;;;;;;4928587;29;20205;-82
2020/12/26 04:48:31;;;;;;;11.57;3.43;;;6.80;99.90;;;;;;4928408;29;20194;-82
2020/12/26 04:51:02;;;;;;;8.03;2.80;;;6.80;99.90;;;;;;4927686;29;20206;-81
2020/12/26 04:53:33;;;;;;;7.30;2.50;;;6.80;99.90;;;;;;4927956;29;20228;-81
2020/12/26 04:56:01;;;;;;;7.27;2.43;;;6.80;99.90;;;;;;4927868;29;20584;-80
2020/12/26 04:58:30;;;;;;;5.17;2.20;;;6.80;99.90;;;;;;4927609;29;20248;-80
2020/12/26 05:00:57;;;;;;;8.90;2.13;;;6.80;99.90;;;;;;4928010;29;20273;-81
2020/12/26 05:03:27;;;;;;;7.33;2.80;;;6.90;99.90;;;;;;4927680;29;20575;-81
2020/12/26 05:05:59;;;;;;;6.13;2.83;;;6.90;99.90;;;;;;4928265;29;20241;-81
2020/12/26 05:08:26;;;;;;;5.43;2.80;;;6.90;99.90;;;;;;4928413;29;20325;-81
2020/12/26 05:10:53;;;;;;;8.00;2.43;;;6.90;99.90;;;;;;4927685;29;20661;-80
2020/12/26 05:13:19;;;;;;;5.00;2.10;;;6.90;99.90;;;;;;4926273;29;20273;-81
2020/12/26 05:15:47;;;;;;;5.30;1.80;;;6.90;99.90;;;;;;4927387;29;20912;-80
2020/12/26 05:18:13;;;;;;;11.43;2.27;;;6.90;99.90;;;;;;4927011;29;20257;-80
2020/12/26 05:20:40;;;;;;;7.70;2.80;;;6.90;99.90;;;;;;4927036;29;20202;-80
2020/12/26 05:23:08;;;;;;;5.77;1.77;;;6.90;99.90;;;;;;4927777;29;20215;-80
2020/12/26 05:25:39;;;;;;;8.97;2.43;;;6.90;99.90;;;;;;4927459;29;20296;-81
2020/12/26 05:28:13;;;;;;;6.03;2.20;;;6.90;99.90;;;;;;4928591;29;20201;-81
2020/12/26 05:30:40;;;;;;;9.10;2.10;;;6.90;99.90;;;;;;4928612;29;20198;-78
2020/12/26 05:33:08;;;;;;;3.87;1.70;;;6.90;99.90;;;;;;4928500;29;20209;-81
2020/12/26 05:35:40;;;;;;;9.93;2.20;;;6.90;99.90;;;;;;4928212;29;20206;-80
2020/12/26 05:38:20;;;;;;;8.53;2.63;;;6.90;99.90;;;;;;4927926;29;21006;-80
2020/12/26 05:40:48;;;;;;;10.07;3.73;;;6.90;99.90;;;;;;4927476;29;20221;-80
2020/12/26 05:43:19;;;;;;;12.30;3.50;;;6.90;99.90;;;;;;4928478;29;20213;-80
2020/12/26 05:45:46;;;;;;;8.27;2.50;;;7.00;99.90;;;;;;4928822;29;20202;-80
2020/12/26 05:48:14;;;;;;;12.10;3.10;;;7.00;99.90;;;;;;4927974;29;20238;-78
2020/12/26 05:50:42;;;;;;;7.23;2.30;;;7.00;99.90;;;;;;4928272;29;20206;-80
2020/12/26 05:53:09;;;;;;;8.40;2.63;;;7.00;99.90;;;;;;4927186;29;20745;-82
2020/12/26 05:55:39;;;;;;;10.47;2.97;;;7.00;99.90;;;;;;4927590;29;20209;-81
2020/12/26 05:58:06;;;;;;;7.03;2.07;;;7.00;99.90;;;;;;4928468;29;20209;-80
2020/12/26 06:00:34;;;;;;;6.40;2.70;;;7.10;99.90;;;;;;4931188;29;20956;-80
2020/12/26 06:03:00;;;;;;;11.70;2.83;;;7.00;99.90;;;;;;4930586;29;20202;-81
2020/12/26 06:05:28;;;;;;;5.27;1.93;;;7.00;99.90;;;;;;4931138;29;20206;-80
2020/12/26 06:07:55;;;;;;;7.17;2.90;;;7.00;99.90;;;;;;4930717;29;20225;-79
2020/12/26 06:10:21;;;;;;;12.53;3.57;;;7.00;99.90;;;;;;4930673;29;20214;-78
2020/12/26 06:12:49;;;;;;;11.47;3.33;;;7.10;99.90;;;;;;4930671;29;20882;-79
2020/12/26 06:15:25;;;;;;;8.23;2.73;;;7.10;99.90;;;;;;4930622;29;20206;-79
2020/12/26 06:17:55;;;;;;;7.60;2.37;;;7.10;99.90;;;;;;4931299;29;20693;-80
2020/12/26 06:20:22;;;;;;;6.93;3.47;;;7.20;99.90;;;;;;4931493;29;20202;-80
2020/12/26 06:22:51;;;;;;;8.73;3.37;;;7.20;99.90;;;;;;4949001;28;20213;-81
2020/12/26 06:25:19;;;;;;;9.70;2.00;;;7.10;99.90;;;;;;4949847;28;20213;-81
2020/12/26 06:28:00;;;;;;;7.43;2.40;;;7.10;99.90;;;;;;4949923;29;20205;-80
2020/12/26 06:30:27;;;;;;;10.40;3.87;;;7.10;99.90;;;;;;4949635;29;20517;-79
2020/12/26 06:32:55;;;;;;;11.40;2.37;;;7.20;99.90;;;;;;4950296;29;20205;-80
2020/12/26 06:35:22;;;;;;;9.00;1.73;;;7.20;99.90;;;;;;4948894;29;20511;-79
2020/12/26 06:38:09;;;;;;;5.30;2.00;;;7.20;99.90;;;;;;4949522;29;20249;-81
2020/12/26 06:40:35;;;;;;;10.17;2.23;;;7.30;99.90;;;;;;4949838;29;20607;-78
2020/12/26 06:43:01;;;;;;;9.93;2.83;;;7.40;99.90;;;;;;4949825;28;20499;-79
2020/12/26 06:45:32;;;;;;;7.97;2.33;;;7.40;99.90;;;;;;4949831;28;20205;-81
2020/12/26 06:47:59;;;;;;;8.60;1.90;;;7.40;99.90;;;;;;4951073;29;20650;-81
2020/12/26 06:50:27;;;;;;;6.83;1.93;;;7.50;99.90;;;;;;4949114;28;20205;-78
2020/12/26 06:52:54;;;;;;;5.70;1.97;;;7.40;99.90;;;;;;4949074;29;20208;-77
2020/12/26 06:55:41;;;;;;;6.57;1.93;;;7.50;99.90;;;;;;4949661;29;20201;-78
2020/12/26 06:58:08;;;;;;;6.47;2.00;;;7.50;99.90;;;;;;4948427;28;20232;-77
2020/12/26 07:00:35;;;;;;;5.07;1.30;;;7.50;99.90;;;;;;4948583;29;20508;-78
2020/12/26 07:03:21;;;;;;;7.33;1.77;;;7.40;99.90;;;;;;4948311;29;20217;-77
2020/12/26 07:05:49;;;;;;;8.77;2.07;;;7.40;99.90;;;;;;4948804;29;20213;-80
2020/12/26 07:08:27;;;;;;;4.90;1.40;;;7.30;99.90;;;;;;4948084;29;20201;-78
2020/12/26 07:10:54;;;;;;;5.27;1.53;;;7.40;99.90;;;;;;4948683;28;20208;-76
2020/12/26 07:13:46;;;;;;;12.00;2.47;;;7.40;99.90;;;;;;4947852;29;20241;-82
2020/12/26 07:16:35;;;;;;;8.50;2.30;;;7.40;99.90;;;;;;4947813;29;20251;-78
2020/12/26 07:19:46;;;;;;;9.30;2.47;;;7.40;99.90;;;;;;4947412;28;20213;-78
2020/12/26 07:22:15;;;;;;;4.83;2.07;;;7.30;99.90;;;;;;4932885;29;20206;-77
2020/12/26 07:24:44;;;;;;;3.23;1.50;;;7.30;99.90;;;;;;4928402;29;20241;-78
2020/12/26 07:27:29;;;;;;;6.00;1.77;;;7.20;99.90;;;;;;4928171;29;20206;-81
2020/12/26 07:30:09;;;;;;;6.93;2.20;;;7.20;99.90;;;;;;4928667;29;20312;-78
2020/12/26 07:32:47;;;;;;;6.47;2.10;;;7.20;99.90;;;;;;4928212;29;20198;-77
2020/12/26 07:35:35;;;;;;;13.47;2.93;;;7.30;99.90;;;;;;4928400;29;20672;-82
2020/12/26 07:38:03;;;;;;;9.57;3.33;;;7.30;99.90;;;;;;4927344;29;20230;-79
2020/12/26 07:40:32;;;;;;;10.53;2.67;;;7.30;99.90;;;;;;4927849;29;20707;-79
2020/12/26 07:43:02;;;;;;;12.33;3.17;;;7.30;99.90;;;;;;4928453;29;20212;-80
2020/12/26 07:45:30;;;;;;;6.77;2.40;;;7.30;99.90;;;;;;4928600;29;20607;-78
2020/12/26 07:47:58;;;;;;;10.97;2.27;;;7.20;99.90;;;;;;4910921;29;20265;-76
2020/12/26 07:50:26;;;;;;;6.13;1.80;;;7.30;99.90;;;;;;4928575;29;20206;-77
2020/12/26 07:52:53;;;;;;;5.40;1.60;;;7.30;99.90;;;;;;4927840;29;20778;-77
2020/12/26 07:55:20;;;;;;;5.97;2.10;;;7.30;99.90;;;;;;4926985;29;20210;-78
2020/12/26 07:57:47;;;;;;;8.20;3.27;;;7.20;99.90;;;;;;4927533;29;20222;-77
2020/12/26 08:00:24;;;;;;;8.57;3.20;;;7.20;99.90;;;;;;4926096;29;20201;-77
2020/12/26 08:02:51;;;;;;;9.20;3.00;;;7.10;99.90;;;;;;4927027;29;20661;-77
2020/12/26 08:05:21;;;;;;;11.77;2.60;;;7.10;99.90;;;;;;4927236;29;20297;-79
2020/12/26 08:07:48;;;;;;;7.60;1.77;;;7.10;99.90;;;;;;4925903;29;20253;-77
2020/12/26 08:10:15;;;;;;;5.33;1.40;;;7.10;99.90;;;;;;4925134;29;20870;-78
2020/12/26 08:12:49;;;;;;;7.33;2.50;;;7.00;99.90;;;;;;4927141;29;20675;-79
2020/12/26 08:15:19;;;;;;;5.73;1.80;;;6.90;99.90;;;;;;4927321;29;20605;-79
2020/12/26 08:17:52;;;;;;;7.53;2.37;;;6.90;99.90;;;;;;4928882;29;20320;-79
2020/12/26 08:20:21;;;;;;;8.27;2.37;;;6.90;99.90;;;;;;4927746;29;20202;-79
2020/12/26 08:22:47;;;;;;;10.03;2.73;;;6.90;99.90;;;;;;4946121;29;20238;-80
2020/12/26 08:25:14;;;;;;;5.57;1.40;;;6.90;99.90;;;;;;4946401;29;20298;-79
2020/12/26 08:27:41;;;;;;;8.20;2.30;;;7.00;99.90;;;;;;4934588;29;20652;-80
2020/12/26 08:30:11;;;;;;;9.70;3.07;;;7.00;99.90;;;;;;4933298;29;20249;-79
2020/12/26 08:32:56;;;;;;;8.83;3.20;;;7.00;99.90;;;;;;4909252;29;20870;-79
2020/12/26 08:55:57;;;;;;;6.87;1.83;;;7.30;99.90;;;;;;4824099;29;20913;-77
2020/12/26 08:58:26;;;;;;;10.03;2.50;;;7.30;99.90;;;;;;4904577;29;20199;-78
2020/12/26 09:00:53;;;;;;;7.03;1.80;;;7.30;99.90;;;;;;4905231;29;20251;-78
2020/12/26 09:03:21;;;;;;;11.43;2.60;;;7.30;99.90;;;;;;4905194;29;20346;-79
2020/12/26 09:05:47;;;;;;;10.20;2.83;;;7.30;99.90;;;;;;4904343;29;20214;-79
2020/12/26 09:08:14;;;;;;;8.70;2.30;;;7.30;99.90;;;;;;4905523;29;20222;-79
2020/12/26 09:10:41;;;;;;;8.47;3.27;;;7.30;99.90;;;;;;4904401;29;20206;-80
2020/12/26 09:13:09;;;;;;;9.13;3.00;;;7.40;99.90;;;;;;4905056;29;20206;-78
2020/12/26 09:15:53;;;;;;;10.67;3.23;;;7.40;99.90;;;;;;4904675;29;20530;-77
2020/12/26 09:18:21;;;;;;;11.93;3.60;;;7.40;99.90;;;;;;4903328;29;20218;-78
2020/12/26 09:20:53;;;;;;;10.20;3.07;;;7.40;99.90;;;;;;4904350;29;20262;-77
2020/12/26 09:23:20;;;;;;;6.23;2.87;;;7.40;99.90;;;;;;4903698;29;20222;-77
2020/12/26 09:25:46;;;;;;;8.20;2.83;;;7.40;99.90;;;;;;4903513;29;20202;-78
2020/12/26 09:28:14;;;;;;;11.70;2.97;;;7.40;99.90;;;;;;4903621;29;20199;-79
2020/12/26 09:30:40;;;;;;;10.97;3.10;;;7.40;99.90;;;;;;4904345;29;20202;-76
2020/12/26 09:33:06;;;;;;;5.27;1.80;;;7.50;99.90;;;;;;4902571;29;20210;-77
2020/12/26 09:35:34;;;;;;;5.73;1.37;;;7.50;99.90;;;;;;4903816;29;20265;-77
2020/12/26 09:38:01;;;;;;;8.90;1.90;;;7.50;99.90;;;;;;4903958;29;20230;-77
2020/12/26 09:40:29;;;;;;;8.20;1.47;;;7.70;99.90;;;;;;4903417;29;20225;-76
2020/12/26 09:42:55;;;;;;;8.03;1.90;;;7.70;99.90;;;;;;4904154;29;20210;-78
2020/12/26 09:45:23;;;;;;;13.30;1.93;;;7.70;99.90;;;;;;4903194;29;20210;-78
2020/12/26 09:47:49;;;;;;;5.30;1.40;;;7.70;99.90;;;;;;4902896;29;20211;-77
2020/12/26 09:50:16;;;;;;;4.87;1.80;;;7.70;99.90;;;;;;4903312;29;20206;-76
2020/12/26 09:52:43;;;;;;;8.73;1.80;;;7.80;99.90;;;;;;4903171;29;20214;-78
2020/12/26 09:55:10;;;;;;;5.63;1.33;;;7.80;99.90;;;;;;4903538;29;21054;-77
2020/12/26 09:57:37;;;;;;;6.83;1.30;;;7.90;99.90;;;;;;4902050;29;20769;-76
2020/12/26 10:00:05;;;;;;;5.57;2.23;;;7.90;99.90;;;;;;4922485;29;20208;-78
2020/12/26 10:02:33;;;;;;;5.97;2.00;;;7.90;99.90;;;;;;4919203;29;20819;-76
2020/12/26 10:05:00;;;;;;;11.93;2.00;;;7.90;99.90;;;;;;4905315;29;20214;-77
2020/12/26 10:07:30;;;;;;;5.23;1.70;;;7.90;99.90;;;;;;4905420;29;20230;-77
2020/12/26 10:09:56;;;;;;;8.60;3.00;;;8.00;99.90;;;;;;4905791;29;20206;-77
2020/12/26 10:12:23;;;;;;;4.33;1.40;;;8.00;99.90;;;;;;4904905;29;20227;-77
2020/12/26 10:14:49;;;;;;;5.47;1.60;;;8.00;99.90;;;;;;4904366;29;20214;-77
2020/12/26 10:17:15;;;;;;;5.67;1.93;;;8.00;99.90;;;;;;4904643;29;20237;-77
2020/12/26 10:19:43;;;;;;;5.13;2.57;;;7.90;99.90;;;;;;4905850;29;20206;-79
2020/12/26 10:22:09;;;;;;;5.13;2.10;;;8.00;99.90;;;;;;4918278;29;20225;-77
2020/12/26 10:24:35;;;;;;;9.43;3.40;;;8.00;99.90;;;;;;4924257;29;20210;-78
2020/12/26 10:27:01;;;;;;;7.57;2.83;;;7.90;99.90;;;;;;4923902;29;20198;-77
2020/12/26 10:29:28;;;;;;;12.37;3.80;;;7.90;99.90;;;;;;4934377;29;20241;-77
2020/12/26 10:31:54;;;;;;;8.43;2.60;;;7.90;99.90;;;;;;4943101;29;20256;-77
2020/12/26 10:34:20;;;;;;;5.47;1.87;;;7.90;99.90;;;;;;4943719;29;20209;-78
2020/12/26 10:36:47;;;;;;;6.20;1.60;;;7.90;99.90;;;;;;4942940;28;20236;-78
2020/12/26 10:39:13;;;;;;;5.80;1.63;;;7.90;99.90;;;;;;4943768;29;20213;-77
2020/12/26 10:41:44;;;;;;;6.80;2.13;;;8.00;99.90;;;;;;4943977;29;20229;-77
2020/12/26 10:44:13;;;;;;;10.90;2.10;;;8.00;99.90;;;;;;4943529;28;20685;-76
2020/12/26 10:46:41;;;;;;;8.53;2.10;;;8.00;99.90;;;;;;4947567;28;20201;-77
2020/12/26 10:49:07;;;;;;;4.73;1.80;;;8.00;99.90;;;;;;4946440;29;20266;-77
2020/12/26 10:51:34;;;;;;;9.13;1.80;;;8.00;99.90;;;;;;4947086;29;20209;-75
2020/12/26 10:54:01;;;;;;;8.57;1.63;;;8.10;99.90;;;;;;4947171;29;20209;-76
2020/12/26 10:56:27;;;;;;;7.07;2.07;;;8.10;99.90;;;;;;4946646;29;20677;-76
2020/12/26 10:58:54;;;;;;;7.87;2.10;;;8.10;99.90;;;;;;4946794;29;20304;-76
2020/12/26 11:01:29;;;;;;;5.17;1.63;;;8.10;99.90;;;;;;4947196;29;20209;-76
2020/12/26 11:03:56;;;;;;;7.17;1.80;;;8.10;99.90;;;;;;4946503;29;20551;-76
2020/12/26 11:06:22;;;;;;;6.90;1.37;;;8.10;99.90;;;;;;4947044;29;20205;-75
2020/12/26 11:08:48;;;;;;;7.33;1.47;;;8.10;99.90;;;;;;4946349;28;20614;-76
2020/12/26 11:11:15;;;;;;;7.97;1.30;;;8.10;99.90;;;;;;4945462;29;20238;-77
2020/12/26 11:13:42;;;;;;;8.27;2.03;;;8.10;99.90;;;;;;4932379;29;20221;-78
2020/12/26 11:16:12;;;;;;;5.97;2.20;;;8.10;99.90;;;;;;4928664;29;20210;-75
2020/12/26 11:18:39;;;;;;;6.53;1.70;;;8.20;99.90;;;;;;4936542;28;20484;-75
2020/12/26 11:21:05;;;;;;;7.20;1.93;;;8.10;99.90;;;;;;4937676;28;20210;-76
2020/12/26 11:23:31;;;;;;;8.17;2.40;;;8.10;99.90;;;;;;4924994;29;20825;-78
2020/12/26 11:25:58;;;;;;;12.07;2.23;;;8.10;99.90;;;;;;4933050;28;20217;-78
2020/12/26 11:28:25;;;;;;;6.87;2.17;;;8.00;99.90;;;;;;4924393;29;20252;-77
2020/12/26 11:30:52;;;;;;;7.50;1.50;;;8.00;99.90;;;;;;4926061;29;20281;-77
2020/12/26 11:33:18;;;;;;;18.10;2.70;;;8.00;99.90;;;;;;4925006;29;20221;-77
2020/12/26 11:35:44;;;;;;;9.73;1.73;;;8.00;99.90;;;;;;4925548;29;20217;-80
2020/12/26 11:38:10;;;;;;;8.90;2.33;;;8.00;99.90;;;;;;4928620;28;20259;-78
2020/12/26 11:40:37;;;;;;;8.07;2.30;;;7.90;99.90;;;;;;4925033;29;20237;-80
2020/12/26 11:43:04;;;;;;;4.77;1.60;;;7.90;99.90;;;;;;4938226;29;20216;-81
2020/12/26 11:45:32;;;;;;;6.77;1.40;;;7.90;99.90;;;;;;4931969;29;20210;-78
2020/12/26 11:47:58;;;;;;;6.37;1.60;;;7.80;99.90;;;;;;4939382;29;20198;-79
2020/12/26 11:50:24;;;;;;;4.57;1.53;;;7.80;99.90;;;;;;4935442;29;20214;-80
2020/12/26 11:52:51;;;;;;;11.80;1.60;;;7.80;99.90;;;;;;4917441;29;20220;-79
2020/12/26 11:55:17;;;;;;;10.30;1.97;;;7.80;99.90;;;;;;4917711;29;20776;-78
2020/12/26 11:57:44;;;;;;;10.07;1.70;;;7.70;99.90;;;;;;4917830;29;20226;-78
2020/12/26 12:00:10;;;;;;;12.23;2.80;;;7.80;99.90;;;;;;4914777;29;20594;-80
2020/12/26 12:02:38;;;;;;;10.63;2.17;;;7.70;99.90;;;;;;4918170;29;20211;-81
2020/12/26 12:05:04;;;;;;;14.20;2.30;;;7.70;99.90;;;;;;4923005;29;20213;-80
2020/12/26 12:07:30;;;;;;;11.07;2.83;;;7.60;99.90;;;;;;4917615;29;20347;-79
2020/12/26 12:09:57;;;;;;;6.03;2.47;;;7.50;99.90;;;;;;4917693;29;20218;-81
2020/12/26 12:12:25;;;;;;;5.20;1.97;;;7.50;99.90;;;;;;4915297;29;20205;-81
2020/12/26 12:14:51;;;;;;;10.10;2.77;;;7.40;99.90;;;;;;4916404;29;20210;-81
2020/12/26 12:17:17;;;;;;;8.83;2.33;;;7.40;99.90;;;;;;4913482;29;20226;-78
2020/12/26 12:19:44;;;;;;;6.67;2.07;;;7.30;99.90;;;;;;4914368;29;20207;-79
2020/12/26 12:22:11;;;;;;;10.57;2.10;;;7.30;99.90;;;;;;4914257;29;20229;-77
2020/12/26 12:24:37;;;;;;;6.70;2.93;;;7.20;99.90;;;;;;4914380;29;20210;-78
2020/12/26 12:27:04;;;;;;;5.70;2.80;;;7.30;99.90;;;;;;4913524;29;20213;-80
2020/12/26 12:29:30;;;;;;;8.33;3.27;;;7.20;99.90;;;;;;4913951;29;20246;-78
2020/12/26 12:31:56;;;;;;;8.17;2.90;;;7.20;99.90;;;;;;4916253;29;20222;-80
2020/12/26 12:34:23;;;;;;;5.67;2.60;;;7.20;99.90;;;;;;4916702;29;20202;-79
2020/12/26 12:36:50;;;;;;;8.83;3.10;;;7.10;99.90;;;;;;4915080;29;20976;-79
2020/12/26 12:39:16;;;;;;;8.97;3.30;;;7.20;99.90;;;;;;4920038;29;20218;-78
2020/12/26 12:41:42;;;;;;;5.50;3.63;;;7.10;99.90;;;;;;4926829;29;20233;-79
2020/12/26 12:44:08;;;;;;;6.57;2.90;;;7.10;99.90;;;;;;4928597;29;20844;-80
2020/12/26 12:46:35;;;;;;;7.07;3.60;;;7.10;99.90;;;;;;4932748;29;20546;-79
2020/12/26 12:49:01;;;;;;;7.73;3.63;;;7.10;99.90;;;;;;4925981;29;20273;-79
2020/12/26 12:51:28;;;;;;;5.10;2.77;;;7.10;99.90;;;;;;4929743;29;20218;-79
2020/12/26 12:53:55;;;;;;;3.30;3.00;;;7.10;99.90;;;;;;4937677;29;20229;-79
2020/12/26 12:56:29;;;;;;;3.30;2.97;;;7.10;99.90;;;;;;4938019;28;20225;-79
2020/12/26 12:58:55;;;;;;;4.37;3.00;;;7.00;99.90;;;;;;4931343;29;20280;-81
2020/12/26 13:01:21;;;;;;;5.13;3.20;;;7.00;99.90;;;;;;4940351;29;20214;-80
2020/12/26 13:03:48;;;;;;;4.57;3.20;;;7.00;99.90;;;;;;4943201;29;20967;-79
2020/12/26 13:06:16;;;;;;;3.57;3.20;;;7.00;99.90;;;;;;4928249;29;20261;-79
2020/12/26 13:08:43;;;;;;;3.97;3.57;;;7.00;99.90;;;;;;4933510;29;20582;-79
2020/12/26 13:11:10;;;;;;;3.80;3.50;;;7.00;99.90;;;;;;4943003;29;20205;-80
2020/12/26 13:13:36;;;;;;;3.80;3.50;;;6.90;99.90;;;;;;4942097;29;20217;-80
2020/12/26 13:16:02;;;;;;;4.63;4.23;;;6.90;99.90;;;;;;4931105;29;20224;-80
2020/12/26 13:18:29;;;;;;;7.03;4.53;;;6.90;99.90;;;;;;4934748;29;20320;-79
2020/12/26 13:20:55;;;;;;;6.47;5.37;;;6.90;99.90;;;;;;4930877;29;20210;-79